sensor_id;sensor_type;location;lat;lon;timestamp;pressure;altitude;pressure_sealevel;temperature;humidity
52957;BME280;38819;42.692;23.342;2023-05-29T00:01:13;95067.00;;;16.62;72.54
52957;BME280;38819;42.692;23.342;2023-05-29T00:03:44;95072.31;;;16.59;72.50
52957;BME280;38819;42.692;23.342;2023-05-29T00:06:09;95068.13;;;16.61;72.45
52957;BME280;38819;42.692;23.342;2023-05-29T00:08:35;95070.53;;;16.63;72.48
52957;BME280;38819;42.692;23.342;2023-05-29T00:11:01;95076.06;;;16.54;72.77
52957;BME280;38819;42.692;23.342;2023-05-29T00:13:26;95077.97;;;16.54;73.12
52957;BME280;38819;42.692;23.342;2023-05-29T00:15:52;95074.44;;;16.53;72.54
52957;BME280;38819;42.692;23.342;2023-05-29T00:18:17;95067.59;;;16.47;73.19
52957;BME280;38819;42.692;23.342;2023-05-29T00:20:43;95072.25;;;16.46;73.20
52957;BME280;38819;42.692;23.342;2023-05-29T00:23:08;95080.78;;;16.45;73.31
52957;BME280;38819;42.692;23.342;2023-05-29T00:25:35;95080.84;;;16.36;73.45
52957;BME280;38819;42.692;23.342;2023-05-29T00:28:00;95078.00;;;16.33;73.72
52957;BME280;38819;42.692;23.342;2023-05-29T00:30:26;95081.84;;;16.32;73.52
52957;BME280;38819;42.692;23.342;2023-05-29T00:32:51;95081.19;;;16.35;73.31
52957;BME280;38819;42.692;23.342;2023-05-29T00:35:20;95072.53;;;16.33;73.50
52957;BME280;38819;42.692;23.342;2023-05-29T00:37:45;95068.88;;;16.28;73.60
52957;BME280;38819;42.692;23.342;2023-05-29T00:40:11;95066.47;;;16.27;73.83
52957;BME280;38819;42.692;23.342;2023-05-29T00:42:37;95067.28;;;16.27;73.86
52957;BME280;38819;42.692;23.342;2023-05-29T00:45:02;95067.94;;;16.24;73.98
52957;BME280;38819;42.692;23.342;2023-05-29T00:47:28;95072.75;;;16.27;73.75
52957;BME280;38819;42.692;23.342;2023-05-29T00:49:56;95073.06;;;16.26;73.50
52957;BME280;38819;42.692;23.342;2023-05-29T00:52:23;95077.25;;;16.23;73.45
52957;BME280;38819;42.692;23.342;2023-05-29T00:54:50;95063.28;;;16.25;73.30
52957;BME280;38819;42.692;23.342;2023-05-29T00:57:16;95060.69;;;16.28;73.25
52957;BME280;38819;42.692;23.342;2023-05-29T00:59:44;95069.53;;;16.25;73.13
52957;BME280;38819;42.692;23.342;2023-05-29T01:02:10;95062.38;;;16.21;73.43
52957;BME280;38819;42.692;23.342;2023-05-29T01:04:36;95066.28;;;16.11;73.83
52957;BME280;38819;42.692;23.342;2023-05-29T01:07:02;95063.75;;;16.06;74.34
52957;BME280;38819;42.692;23.342;2023-05-29T01:09:29;95064.28;;;15.99;74.45
52957;BME280;38819;42.692;23.342;2023-05-29T01:15:18;95069.78;;;15.90;75.16
52957;BME280;38819;42.692;23.342;2023-05-29T01:20:27;95069.63;;;15.87;75.07
52957;BME280;38819;42.692;23.342;2023-05-29T01:28:16;95072.69;;;15.85;74.94
52957;BME280;38819;42.692;23.342;2023-05-29T01:30:45;95072.41;;;15.78;75.00
52957;BME280;38819;42.692;23.342;2023-05-29T01:33:11;95068.09;;;15.77;75.12
52957;BME280;38819;42.692;23.342;2023-05-29T01:35:37;95064.03;;;15.83;74.84
52957;BME280;38819;42.692;23.342;2023-05-29T01:38:02;95065.31;;;15.86;74.63
52957;BME280;38819;42.692;23.342;2023-05-29T01:40:27;95065.47;;;15.89;74.57
52957;BME280;38819;42.692;23.342;2023-05-29T01:42:53;95063.06;;;15.88;74.36
52957;BME280;38819;42.692;23.342;2023-05-29T01:45:20;95069.63;;;15.87;74.48
52957;BME280;38819;42.692;23.342;2023-05-29T01:47:45;95068.25;;;15.81;74.82
52957;BME280;38819;42.692;23.342;2023-05-29T01:50:13;95066.78;;;15.74;75.01
52957;BME280;38819;42.692;23.342;2023-05-29T01:52:40;95065.53;;;15.72;75.40
52957;BME280;38819;42.692;23.342;2023-05-29T01:55:06;95062.00;;;15.71;75.25
52957;BME280;38819;42.692;23.342;2023-05-29T01:57:32;95053.19;;;15.74;75.09
52957;BME280;38819;42.692;23.342;2023-05-29T01:59:57;95057.53;;;15.76;74.89
52957;BME280;38819;42.692;23.342;2023-05-29T02:02:23;95055.78;;;15.71;74.80
52957;BME280;38819;42.692;23.342;2023-05-29T02:04:48;95056.88;;;15.70;74.60
52957;BME280;38819;42.692;23.342;2023-05-29T02:07:14;95058.00;;;15.78;74.62
52957;BME280;38819;42.692;23.342;2023-05-29T02:09:40;95066.00;;;15.74;74.38
52957;BME280;38819;42.692;23.342;2023-05-29T02:12:06;95053.97;;;15.75;74.27
52957;BME280;38819;42.692;23.342;2023-05-29T02:14:33;95056.69;;;15.75;74.15
52957;BME280;38819;42.692;23.342;2023-05-29T02:16:58;95046.31;;;15.77;74.04
52957;BME280;38819;42.692;23.342;2023-05-29T02:19:24;95054.16;;;15.79;74.13
52957;BME280;38819;42.692;23.342;2023-05-29T02:21:50;95052.88;;;15.76;74.17
52957;BME280;38819;42.692;23.342;2023-05-29T02:24:16;95055.59;;;15.76;74.45
52957;BME280;38819;42.692;23.342;2023-05-29T02:26:41;95050.16;;;15.76;74.52
52957;BME280;38819;42.692;23.342;2023-05-29T02:29:07;95057.03;;;15.73;74.62
52957;BME280;38819;42.692;23.342;2023-05-29T02:31:33;95048.59;;;15.66;75.07
52957;BME280;38819;42.692;23.342;2023-05-29T02:33:58;95050.84;;;15.64;74.94
52957;BME280;38819;42.692;23.342;2023-05-29T02:36:24;95062.97;;;15.67;74.85
52957;BME280;38819;42.692;23.342;2023-05-29T02:38:49;95063.50;;;15.60;75.26
52957;BME280;38819;42.692;23.342;2023-05-29T02:41:15;95061.91;;;15.59;75.05
52957;BME280;38819;42.692;23.342;2023-05-29T02:43:40;95068.72;;;15.74;74.79
52957;BME280;38819;42.692;23.342;2023-05-29T02:46:06;95071.47;;;15.74;74.79
52957;BME280;38819;42.692;23.342;2023-05-29T02:48:31;95070.81;;;15.68;74.87
52957;BME280;38819;42.692;23.342;2023-05-29T02:50:56;95075.75;;;15.75;74.89
52957;BME280;38819;42.692;23.342;2023-05-29T02:53:22;95064.13;;;15.66;74.90
52957;BME280;38819;42.692;23.342;2023-05-29T02:55:48;95065.25;;;15.65;75.43
52957;BME280;38819;42.692;23.342;2023-05-29T02:58:14;95059.00;;;15.64;75.56
52957;BME280;38819;42.692;23.342;2023-05-29T03:00:41;95051.03;;;15.59;75.83
52957;BME280;38819;42.692;23.342;2023-05-29T03:03:06;95068.59;;;15.70;75.47
52957;BME280;38819;42.692;23.342;2023-05-29T03:05:32;95066.78;;;15.83;75.06
52957;BME280;38819;42.692;23.342;2023-05-29T03:07:57;95067.59;;;15.84;75.00
52957;BME280;38819;42.692;23.342;2023-05-29T03:10:23;95070.31;;;15.84;74.97
52957;BME280;38819;42.692;23.342;2023-05-29T03:12:48;95068.84;;;15.86;74.61
52957;BME280;38819;42.692;23.342;2023-05-29T03:15:13;95067.06;;;15.90;74.53
52957;BME280;38819;42.692;23.342;2023-05-29T03:17:39;95060.00;;;15.89;74.50
52957;BME280;38819;42.692;23.342;2023-05-29T03:20:05;95065.72;;;15.97;74.40
52957;BME280;38819;42.692;23.342;2023-05-29T03:22:32;95066.06;;;15.95;74.48
52957;BME280;38819;42.692;23.342;2023-05-29T03:24:57;95066.38;;;15.93;74.29
52957;BME280;38819;42.692;23.342;2023-05-29T03:27:23;95067.47;;;16.01;74.32
52957;BME280;38819;42.692;23.342;2023-05-29T03:29:48;95081.94;;;15.93;74.61
52957;BME280;38819;42.692;23.342;2023-05-29T03:32:14;95076.69;;;15.88;74.80
52957;BME280;38819;42.692;23.342;2023-05-29T03:34:39;95080.31;;;15.92;74.64
52957;BME280;38819;42.692;23.342;2023-05-29T03:37:05;95086.72;;;15.96;74.99
52957;BME280;38819;42.692;23.342;2023-05-29T03:39:31;95084.13;;;16.00;75.26
52957;BME280;38819;42.692;23.342;2023-05-29T03:41:56;95086.47;;;16.10;74.98
52957;BME280;38819;42.692;23.342;2023-05-29T03:44:22;95093.53;;;16.11;75.24
52957;BME280;38819;42.692;23.342;2023-05-29T03:46:47;95092.53;;;16.16;75.57
52957;BME280;38819;42.692;23.342;2023-05-29T03:49:12;95090.41;;;16.21;75.55
52957;BME280;38819;42.692;23.342;2023-05-29T03:51:38;95092.28;;;16.29;75.22
52957;BME280;38819;42.692;23.342;2023-05-29T03:54:03;95091.63;;;16.33;75.03
52957;BME280;38819;42.692;23.342;2023-05-29T03:56:29;95103.25;;;16.42;74.70
52957;BME280;38819;42.692;23.342;2023-05-29T03:58:55;95097.78;;;16.42;74.40
52957;BME280;38819;42.692;23.342;2023-05-29T04:01:21;95096.53;;;16.39;74.47
52957;BME280;38819;42.692;23.342;2023-05-29T04:03:46;95101.31;;;16.42;74.65
52957;BME280;38819;42.692;23.342;2023-05-29T04:06:11;95112.81;;;16.48;74.21
52957;BME280;38819;42.692;23.342;2023-05-29T04:08:38;95109.19;;;16.44;74.16
52957;BME280;38819;42.692;23.342;2023-05-29T04:11:03;95122.59;;;16.49;74.21
52957;BME280;38819;42.692;23.342;2023-05-29T04:13:30;95121.00;;;16.48;74.30
52957;BME280;38819;42.692;23.342;2023-05-29T04:15:55;95127.72;;;16.51;74.25
52957;BME280;38819;42.692;23.342;2023-05-29T04:18:21;95119.69;;;16.54;74.26
52957;BME280;38819;42.692;23.342;2023-05-29T04:20:46;95122.53;;;16.58;74.02
52957;BME280;38819;42.692;23.342;2023-05-29T04:23:13;95115.94;;;16.59;73.81
52957;BME280;38819;42.692;23.342;2023-05-29T04:25:38;95117.22;;;16.61;73.94
52957;BME280;38819;42.692;23.342;2023-05-29T04:28:04;95119.84;;;16.70;73.75
52957;BME280;38819;42.692;23.342;2023-05-29T04:30:29;95120.78;;;16.74;73.41
52957;BME280;38819;42.692;23.342;2023-05-29T04:32:55;95118.72;;;16.71;73.53
52957;BME280;38819;42.692;23.342;2023-05-29T04:35:21;95122.81;;;16.86;73.44
52957;BME280;38819;42.692;23.342;2023-05-29T04:37:47;95120.25;;;16.81;74.19
52957;BME280;38819;42.692;23.342;2023-05-29T04:40:12;95128.59;;;16.84;73.52
52957;BME280;38819;42.692;23.342;2023-05-29T04:42:42;95128.72;;;16.88;73.61
52957;BME280;38819;42.692;23.342;2023-05-29T04:45:10;95128.19;;;16.95;73.20
52957;BME280;38819;42.692;23.342;2023-05-29T04:47:38;95132.34;;;16.92;73.17
52957;BME280;38819;42.692;23.342;2023-05-29T04:50:13;95122.47;;;16.88;74.07
52957;BME280;38819;42.692;23.342;2023-05-29T04:52:38;95129.38;;;16.85;74.14
52957;BME280;38819;42.692;23.342;2023-05-29T04:55:05;95132.63;;;16.78;74.44
52957;BME280;38819;42.692;23.342;2023-05-29T04:57:30;95138.47;;;16.68;74.58
52957;BME280;38819;42.692;23.342;2023-05-29T04:59:56;95139.69;;;16.58;74.98
52957;BME280;38819;42.692;23.342;2023-05-29T05:02:21;95143.69;;;16.61;74.23
52957;BME280;38819;42.692;23.342;2023-05-29T05:04:47;95150.84;;;16.65;73.96
52957;BME280;38819;42.692;23.342;2023-05-29T05:07:13;95156.44;;;16.48;74.61
52957;BME280;38819;42.692;23.342;2023-05-29T05:09:41;95153.31;;;16.58;74.22
52957;BME280;38819;42.692;23.342;2023-05-29T05:12:07;95156.09;;;16.49;74.53
52957;BME280;38819;42.692;23.342;2023-05-29T05:14:32;95156.97;;;16.41;74.60
52957;BME280;38819;42.692;23.342;2023-05-29T05:16:58;95168.53;;;16.38;74.70
52957;BME280;38819;42.692;23.342;2023-05-29T05:19:23;95161.13;;;16.39;74.72
52957;BME280;38819;42.692;23.342;2023-05-29T05:21:48;95160.16;;;16.43;74.78
52957;BME280;38819;42.692;23.342;2023-05-29T05:24:14;95158.69;;;16.46;74.76
52957;BME280;38819;42.692;23.342;2023-05-29T05:26:39;95162.03;;;16.52;74.96
52957;BME280;38819;42.692;23.342;2023-05-29T05:29:05;95165.06;;;16.50;74.57
52957;BME280;38819;42.692;23.342;2023-05-29T05:31:30;95167.06;;;16.41;74.86
52957;BME280;38819;42.692;23.342;2023-05-29T05:33:56;95165.53;;;16.52;74.65
52957;BME280;38819;42.692;23.342;2023-05-29T05:36:21;95171.34;;;16.51;75.04
52957;BME280;38819;42.692;23.342;2023-05-29T05:38:47;95168.25;;;16.52;74.96
52957;BME280;38819;42.692;23.342;2023-05-29T05:41:12;95166.63;;;16.60;74.88
52957;BME280;38819;42.692;23.342;2023-05-29T05:43:37;95165.16;;;16.62;73.90
52957;BME280;38819;42.692;23.342;2023-05-29T05:46:03;95166.88;;;16.67;73.87
52957;BME280;38819;42.692;23.342;2023-05-29T05:48:28;95168.06;;;16.78;73.59
52957;BME280;38819;42.692;23.342;2023-05-29T05:50:53;95164.63;;;16.90;72.91
52957;BME280;38819;42.692;23.342;2023-05-29T05:53:19;95174.59;;;17.07;72.85
52957;BME280;38819;42.692;23.342;2023-05-29T05:55:46;95167.00;;;17.13;72.75
52957;BME280;38819;42.692;23.342;2023-05-29T05:58:11;95168.75;;;17.17;72.94
52957;BME280;38819;42.692;23.342;2023-05-29T06:00:36;95164.31;;;17.25;72.91
52957;BME280;38819;42.692;23.342;2023-05-29T06:03:02;95168.91;;;17.33;72.85
52957;BME280;38819;42.692;23.342;2023-05-29T06:05:29;95162.75;;;17.24;72.64
52957;BME280;38819;42.692;23.342;2023-05-29T06:07:55;95159.88;;;17.20;72.99
52957;BME280;38819;42.692;23.342;2023-05-29T06:10:20;95160.19;;;17.19;72.61
52957;BME280;38819;42.692;23.342;2023-05-29T06:12:46;95162.47;;;17.17;73.14
52957;BME280;38819;42.692;23.342;2023-05-29T06:15:11;95161.00;;;17.19;72.45
52957;BME280;38819;42.692;23.342;2023-05-29T06:17:37;95163.28;;;17.17;72.57
52957;BME280;38819;42.692;23.342;2023-05-29T06:20:03;95169.31;;;17.23;72.53
52957;BME280;38819;42.692;23.342;2023-05-29T06:22:36;95170.38;;;17.31;72.62
52957;BME280;38819;42.692;23.342;2023-05-29T06:25:02;95185.69;;;17.23;71.78
52957;BME280;38819;42.692;23.342;2023-05-29T06:27:28;95185.59;;;16.98;72.53
52957;BME280;38819;42.692;23.342;2023-05-29T06:29:53;95186.56;;;17.15;72.35
52957;BME280;38819;42.692;23.342;2023-05-29T06:32:18;95184.75;;;17.19;72.40
52957;BME280;38819;42.692;23.342;2023-05-29T06:34:44;95172.50;;;17.25;72.33
52957;BME280;38819;42.692;23.342;2023-05-29T06:37:09;95177.47;;;17.44;71.78
52957;BME280;38819;42.692;23.342;2023-05-29T06:39:35;95170.41;;;17.43;71.18
52957;BME280;38819;42.692;23.342;2023-05-29T06:42:00;95169.88;;;17.62;71.41
52957;BME280;38819;42.692;23.342;2023-05-29T06:44:26;95176.38;;;17.82;70.98
52957;BME280;38819;42.692;23.342;2023-05-29T06:46:52;95177.28;;;17.74;70.69
52957;BME280;38819;42.692;23.342;2023-05-29T06:49:17;95167.66;;;17.89;70.98
52957;BME280;38819;42.692;23.342;2023-05-29T06:51:44;95167.47;;;18.06;70.00
52957;BME280;38819;42.692;23.342;2023-05-29T06:54:09;95163.00;;;18.02;70.11
52957;BME280;38819;42.692;23.342;2023-05-29T06:56:35;95165.53;;;17.94;70.37
52957;BME280;38819;42.692;23.342;2023-05-29T06:59:00;95177.06;;;17.79;70.67
52957;BME280;38819;42.692;23.342;2023-05-29T07:01:26;95163.22;;;17.84;70.68
52957;BME280;38819;42.692;23.342;2023-05-29T07:03:52;95170.38;;;17.89;71.28
52957;BME280;38819;42.692;23.342;2023-05-29T07:06:18;95165.19;;;17.96;70.46
52957;BME280;38819;42.692;23.342;2023-05-29T07:08:43;95160.09;;;17.86;70.41
52957;BME280;38819;42.692;23.342;2023-05-29T07:11:09;95164.78;;;17.85;70.91
52957;BME280;38819;42.692;23.342;2023-05-29T07:13:34;95170.31;;;17.98;70.44
52957;BME280;38819;42.692;23.342;2023-05-29T07:16:00;95172.81;;;18.15;69.72
52957;BME280;38819;42.692;23.342;2023-05-29T07:18:26;95175.97;;;18.17;70.09
52957;BME280;38819;42.692;23.342;2023-05-29T07:20:51;95174.38;;;18.28;68.13
52957;BME280;38819;42.692;23.342;2023-05-29T07:23:17;95170.63;;;18.21;68.46
52957;BME280;38819;42.692;23.342;2023-05-29T07:25:42;95170.31;;;18.10;69.27
52957;BME280;38819;42.692;23.342;2023-05-29T07:28:08;95168.72;;;18.21;68.85
52957;BME280;38819;42.692;23.342;2023-05-29T07:30:33;95174.38;;;18.41;68.37
52957;BME280;38819;42.692;23.342;2023-05-29T07:32:58;95180.06;;;18.48;68.54
52957;BME280;38819;42.692;23.342;2023-05-29T07:35:24;95164.25;;;18.29;67.53
52957;BME280;38819;42.692;23.342;2023-05-29T07:37:50;95164.34;;;18.32;67.92
52957;BME280;38819;42.692;23.342;2023-05-29T07:40:17;95165.34;;;18.52;67.53
52957;BME280;38819;42.692;23.342;2023-05-29T07:42:42;95170.38;;;18.50;66.87
52957;BME280;38819;42.692;23.342;2023-05-29T07:45:08;95175.94;;;18.66;67.14
52957;BME280;38819;42.692;23.342;2023-05-29T07:47:33;95167.84;;;18.70;67.34
52957;BME280;38819;42.692;23.342;2023-05-29T07:49:59;95171.22;;;18.79;66.84
52957;BME280;38819;42.692;23.342;2023-05-29T07:52:24;95167.34;;;18.80;66.44
52957;BME280;38819;42.692;23.342;2023-05-29T07:54:50;95165.19;;;18.74;66.21
52957;BME280;38819;42.692;23.342;2023-05-29T07:57:16;95164.75;;;18.84;66.66
52957;BME280;38819;42.692;23.342;2023-05-29T07:59:41;95157.41;;;19.00;66.56
52957;BME280;38819;42.692;23.342;2023-05-29T08:02:07;95170.44;;;18.91;66.45
52957;BME280;38819;42.692;23.342;2023-05-29T08:04:33;95169.28;;;18.92;66.37
52957;BME280;38819;42.692;23.342;2023-05-29T08:07:02;95166.63;;;18.96;65.27
52957;BME280;38819;42.692;23.342;2023-05-29T08:09:30;95169.69;;;19.06;65.74
52957;BME280;38819;42.692;23.342;2023-05-29T08:11:56;95168.66;;;19.11;64.87
52957;BME280;38819;42.692;23.342;2023-05-29T08:14:21;95165.94;;;19.11;65.15
52957;BME280;38819;42.692;23.342;2023-05-29T08:16:47;95168.06;;;18.90;65.40
52957;BME280;38819;42.692;23.342;2023-05-29T08:19:12;95172.69;;;19.01;64.87
52957;BME280;38819;42.692;23.342;2023-05-29T08:21:38;95183.78;;;19.21;64.44
52957;BME280;38819;42.692;23.342;2023-05-29T08:24:03;95182.09;;;19.16;64.13
52957;BME280;38819;42.692;23.342;2023-05-29T08:26:32;95172.38;;;19.19;63.65
52957;BME280;38819;42.692;23.342;2023-05-29T08:28:58;95180.00;;;19.25;64.20
52957;BME280;38819;42.692;23.342;2023-05-29T08:31:23;95170.81;;;19.34;63.61
52957;BME280;38819;42.692;23.342;2023-05-29T08:33:53;95171.47;;;19.43;63.82
52957;BME280;38819;42.692;23.342;2023-05-29T08:36:18;95175.59;;;19.37;63.66
52957;BME280;38819;42.692;23.342;2023-05-29T08:38:47;95180.31;;;19.36;62.44
52957;BME280;38819;42.692;23.342;2023-05-29T08:41:27;95167.47;;;19.40;62.02
52957;BME280;38819;42.692;23.342;2023-05-29T08:43:54;95168.75;;;19.43;61.13
52957;BME280;38819;42.692;23.342;2023-05-29T08:46:21;95155.22;;;19.50;60.40
52957;BME280;38819;42.692;23.342;2023-05-29T08:48:48;95155.00;;;19.71;59.98
52957;BME280;38819;42.692;23.342;2023-05-29T08:51:21;95154.88;;;19.68;59.22
52957;BME280;38819;42.692;23.342;2023-05-29T08:53:48;95150.66;;;19.70;58.64
52957;BME280;38819;42.692;23.342;2023-05-29T08:56:16;95144.94;;;19.75;59.39
52957;BME280;38819;42.692;23.342;2023-05-29T08:58:43;95151.44;;;19.71;58.54
52957;BME280;38819;42.692;23.342;2023-05-29T09:01:09;95145.16;;;19.70;58.31
52957;BME280;38819;42.692;23.342;2023-05-29T09:03:36;95144.16;;;19.75;58.15
52957;BME280;38819;42.692;23.342;2023-05-29T09:06:03;95142.19;;;19.75;58.16
52957;BME280;38819;42.692;23.342;2023-05-29T09:08:29;95141.41;;;19.75;58.00
52957;BME280;38819;42.692;23.342;2023-05-29T09:10:55;95142.38;;;19.83;57.53
52957;BME280;38819;42.692;23.342;2023-05-29T09:13:22;95136.88;;;19.83;56.23
52957;BME280;38819;42.692;23.342;2023-05-29T09:15:47;95137.44;;;19.88;56.38
52957;BME280;38819;42.692;23.342;2023-05-29T09:18:13;95130.44;;;19.91;55.72
52957;BME280;38819;42.692;23.342;2023-05-29T09:20:38;95124.59;;;19.92;56.19
52957;BME280;38819;42.692;23.342;2023-05-29T09:23:06;95124.94;;;19.91;55.84
52957;BME280;38819;42.692;23.342;2023-05-29T09:25:35;95117.09;;;19.89;56.63
52957;BME280;38819;42.692;23.342;2023-05-29T09:28:05;95122.75;;;19.80;56.80
52957;BME280;38819;42.692;23.342;2023-05-29T09:32:59;95117.44;;;19.88;56.49
52957;BME280;38819;42.692;23.342;2023-05-29T09:35:26;95109.84;;;19.81;57.55
52957;BME280;38819;42.692;23.342;2023-05-29T09:37:52;95113.03;;;19.83;57.87
52957;BME280;38819;42.692;23.342;2023-05-29T09:40:17;95109.94;;;19.85;58.18
52957;BME280;38819;42.692;23.342;2023-05-29T09:42:43;95100.13;;;19.84;56.56
52957;BME280;38819;42.692;23.342;2023-05-29T09:45:09;95104.00;;;19.98;56.78
52957;BME280;38819;42.692;23.342;2023-05-29T09:47:34;95094.16;;;19.97;56.67
52957;BME280;38819;42.692;23.342;2023-05-29T09:50:00;95100.91;;;20.00;57.70
52957;BME280;38819;42.692;23.342;2023-05-29T09:52:28;95106.13;;;19.89;57.72
52957;BME280;38819;42.692;23.342;2023-05-29T09:54:55;95099.22;;;19.95;58.27
52957;BME280;38819;42.692;23.342;2023-05-29T09:57:22;95097.91;;;19.89;57.94
52957;BME280;38819;42.692;23.342;2023-05-29T09:59:52;95086.56;;;19.91;58.29
52957;BME280;38819;42.692;23.342;2023-05-29T10:02:21;95099.41;;;19.87;57.15
52957;BME280;38819;42.692;23.342;2023-05-29T10:04:48;95083.13;;;19.94;56.03
52957;BME280;38819;42.692;23.342;2023-05-29T10:07:35;95088.88;;;20.05;56.23
52957;BME280;38819;42.692;23.342;2023-05-29T10:10:04;95085.59;;;20.15;56.23
52957;BME280;38819;42.692;23.342;2023-05-29T10:12:38;95076.66;;;20.18;55.61
52957;BME280;38819;42.692;23.342;2023-05-29T10:15:14;95083.81;;;20.42;55.36
52957;BME280;38819;42.692;23.342;2023-05-29T10:17:51;95080.44;;;20.49;55.38
52957;BME280;38819;42.692;23.342;2023-05-29T10:20:20;95077.19;;;20.43;53.10
52957;BME280;38819;42.692;23.342;2023-05-29T10:22:48;95085.91;;;20.49;52.59
52957;BME280;38819;42.692;23.342;2023-05-29T10:25:14;95084.50;;;20.55;53.66
52957;BME280;38819;42.692;23.342;2023-05-29T10:27:42;95070.22;;;20.65;54.24
52957;BME280;38819;42.692;23.342;2023-05-29T10:33:20;95066.91;;;20.95;53.39
52957;BME280;38819;42.692;23.342;2023-05-29T10:38:23;95073.63;;;20.78;52.47
52957;BME280;38819;42.692;23.342;2023-05-29T10:40:50;95073.47;;;20.71;53.16
52957;BME280;38819;42.692;23.342;2023-05-29T10:43:32;95071.63;;;20.59;53.10
52957;BME280;38819;42.692;23.342;2023-05-29T10:45:58;95067.13;;;20.67;53.81
52957;BME280;38819;42.692;23.342;2023-05-29T10:50:54;95063.13;;;20.64;54.02
52957;BME280;38819;42.692;23.342;2023-05-29T10:53:24;95059.59;;;20.64;53.94
52957;BME280;38819;42.692;23.342;2023-05-29T10:55:51;95052.00;;;20.57;53.76
52957;BME280;38819;42.692;23.342;2023-05-29T10:58:22;95054.44;;;20.62;53.41
52957;BME280;38819;42.692;23.342;2023-05-29T11:00:49;95053.03;;;20.68;52.81
52957;BME280;38819;42.692;23.342;2023-05-29T11:03:34;95045.59;;;20.69;53.50
52957;BME280;38819;42.692;23.342;2023-05-29T11:06:08;95049.41;;;20.84;53.64
52957;BME280;38819;42.692;23.342;2023-05-29T11:08:54;95031.34;;;20.83;52.82
52957;BME280;38819;42.692;23.342;2023-05-29T11:13:52;95035.47;;;20.73;53.60
52957;BME280;38819;42.692;23.342;2023-05-29T11:18:51;95031.16;;;20.91;53.52
52957;BME280;38819;42.692;23.342;2023-05-29T11:23:52;95034.88;;;21.03;53.60
52957;BME280;38819;42.692;23.342;2023-05-29T11:26:22;95029.38;;;21.03;52.03
52957;BME280;38819;42.692;23.342;2023-05-29T11:28:48;95024.50;;;21.16;53.48
52957;BME280;38819;42.692;23.342;2023-05-29T11:31:15;95025.56;;;21.31;52.26
52957;BME280;38819;42.692;23.342;2023-05-29T11:33:48;95024.22;;;21.44;51.83
52957;BME280;38819;42.692;23.342;2023-05-29T11:36:21;95019.47;;;21.64;50.36
52957;BME280;38819;42.692;23.342;2023-05-29T11:38:47;95024.38;;;21.78;50.56
52957;BME280;38819;42.692;23.342;2023-05-29T11:41:13;95022.19;;;21.87;50.00
52957;BME280;38819;42.692;23.342;2023-05-29T11:43:38;95019.53;;;21.94;49.52
52957;BME280;38819;42.692;23.342;2023-05-29T11:46:18;95013.56;;;21.89;48.16
52957;BME280;38819;42.692;23.342;2023-05-29T11:48:48;95020.91;;;21.81;49.25
52957;BME280;38819;42.692;23.342;2023-05-29T11:51:14;95025.28;;;21.59;50.28
52957;BME280;38819;42.692;23.342;2023-05-29T11:53:43;95018.44;;;21.49;50.28
52957;BME280;38819;42.692;23.342;2023-05-29T11:56:11;95020.97;;;21.38;50.51
52957;BME280;38819;42.692;23.342;2023-05-29T11:58:38;95023.34;;;21.40;51.58
52957;BME280;38819;42.692;23.342;2023-05-29T12:01:04;95018.84;;;21.51;53.33
52957;BME280;38819;42.692;23.342;2023-05-29T12:03:30;95022.09;;;21.57;54.36
52957;BME280;38819;42.692;23.342;2023-05-29T12:05:55;95015.06;;;21.59;55.45
52957;BME280;38819;42.692;23.342;2023-05-29T12:08:24;95028.34;;;21.54;57.07
52957;BME280;38819;42.692;23.342;2023-05-29T12:10:51;95039.09;;;21.43;57.20
52957;BME280;38819;42.692;23.342;2023-05-29T12:13:21;95056.63;;;21.35;58.93
52957;BME280;38819;42.692;23.342;2023-05-29T12:15:49;95056.97;;;21.33;62.23
52957;BME280;38819;42.692;23.342;2023-05-29T12:18:14;95058.31;;;21.43;64.82
52957;BME280;38819;42.692;23.342;2023-05-29T12:20:40;95077.13;;;21.18;68.73
52957;BME280;38819;42.692;23.342;2023-05-29T12:23:06;95072.31;;;20.91;69.36
52957;BME280;38819;42.692;23.342;2023-05-29T12:25:33;95076.94;;;21.07;66.07
52957;BME280;38819;42.692;23.342;2023-05-29T12:28:02;95084.75;;;20.85;65.62
52957;BME280;38819;42.692;23.342;2023-05-29T12:30:27;95075.97;;;20.60;64.14
52957;BME280;38819;42.692;23.342;2023-05-29T12:32:53;95093.66;;;20.43;66.25
52957;BME280;38819;42.692;23.342;2023-05-29T12:37:46;95082.34;;;20.29;62.90
52957;BME280;38819;42.692;23.342;2023-05-29T12:40:23;95072.50;;;20.44;68.63
52957;BME280;38819;42.692;23.342;2023-05-29T12:42:55;95080.38;;;20.45;67.01
52957;BME280;38819;42.692;23.342;2023-05-29T12:45:24;95074.22;;;20.52;69.35
52957;BME280;38819;42.692;23.342;2023-05-29T12:48:01;95073.66;;;20.62;70.69
52957;BME280;38819;42.692;23.342;2023-05-29T12:50:29;95068.97;;;20.63;71.87
52957;BME280;38819;42.692;23.342;2023-05-29T12:53:08;95069.28;;;20.77;72.67
52957;BME280;38819;42.692;23.342;2023-05-29T12:55:39;95062.44;;;20.87;72.32
52957;BME280;38819;42.692;23.342;2023-05-29T12:58:09;95060.94;;;20.93;70.42
52957;BME280;38819;42.692;23.342;2023-05-29T13:00:35;95068.63;;;21.03;67.95
52957;BME280;38819;42.692;23.342;2023-05-29T13:03:02;95058.56;;;21.11;64.88
52957;BME280;38819;42.692;23.342;2023-05-29T13:05:27;95055.34;;;21.28;66.33
52957;BME280;38819;42.692;23.342;2023-05-29T13:07:53;95059.41;;;21.38;65.15
52957;BME280;38819;42.692;23.342;2023-05-29T13:10:19;95057.34;;;21.32;63.89
52957;BME280;38819;42.692;23.342;2023-05-29T13:12:45;95068.91;;;20.98;63.37
52957;BME280;38819;42.692;23.342;2023-05-29T13:15:12;95065.75;;;20.77;63.52
52957;BME280;38819;42.692;23.342;2023-05-29T13:17:38;95050.13;;;20.42;62.33
52957;BME280;38819;42.692;23.342;2023-05-29T13:20:08;95049.41;;;20.45;65.17